sensor_id;sensor_type;location;lat;lon;timestamp;P1;durP1;ratioP1;P2;durP2;ratioP2
32032;SDS011;31720;52.638;9.216;2023-07-31T00:01:29;5.97;;;2.28;;
32032;SDS011;31720;52.638;9.216;2023-07-31T00:04:31;4.20;;;1.67;;
32032;SDS011;31720;52.638;9.216;2023-07-31T00:07:33;7.50;;;1.88;;
32032;SDS011;31720;52.638;9.216;2023-07-31T00:10:35;5.05;;;1.95;;
32032;SDS011;31720;52.638;9.216;2023-07-31T00:13:36;3.78;;;2.65;;
32032;SDS011;31720;52.638;9.216;2023-07-31T00:16:38;3.92;;;2.15;;
32032;SDS011;31720;52.638;9.216;2023-07-31T00:19:39;3.03;;;1.73;;
32032;SDS011;31720;52.638;9.216;2023-07-31T00:22:42;7.90;;;1.90;;
32032;SDS011;31720;52.638;9.216;2023-07-31T00:25:43;2.83;;;1.95;;
32032;SDS011;31720;52.638;9.216;2023-07-31T00:28:44;4.35;;;2.10;;
32032;SDS011;31720;52.638;9.216;2023-07-31T00:31:46;4.88;;;2.35;;
32032;SDS011;31720;52.638;9.216;2023-07-31T00:34:47;2.70;;;2.22;;
32032;SDS011;31720;52.638;9.216;2023-07-31T00:37:50;4.22;;;2.00;;
32032;SDS011;31720;52.638;9.216;2023-07-31T00:40:51;4.65;;;2.38;;
32032;SDS011;31720;52.638;9.216;2023-07-31T00:43:53;4.68;;;2.33;;
32032;SDS011;31720;52.638;9.216;2023-07-31T00:46:54;2.33;;;2.00;;
32032;SDS011;31720;52.638;9.216;2023-07-31T00:49:58;3.08;;;1.77;;
32032;SDS011;31720;52.638;9.216;2023-07-31T00:53:01;9.27;;;2.33;;
32032;SDS011;31720;52.638;9.216;2023-07-31T00:56:03;5.97;;;2.47;;
32032;SDS011;31720;52.638;9.216;2023-07-31T00:59:04;3.38;;;1.95;;
32032;SDS011;31720;52.638;9.216;2023-07-31T01:02:06;2.63;;;2.38;;
32032;SDS011;31720;52.638;9.216;2023-07-31T01:05:08;2.65;;;2.15;;
32032;SDS011;31720;52.638;9.216;2023-07-31T01:08:12;2.90;;;2.17;;
32032;SDS011;31720;52.638;9.216;2023-07-31T01:11:25;4.13;;;2.53;;
32032;SDS011;31720;52.638;9.216;2023-07-31T01:14:29;3.38;;;2.60;;
32032;SDS011;31720;52.638;9.216;2023-07-31T01:17:30;4.03;;;2.25;;
32032;SDS011;31720;52.638;9.216;2023-07-31T01:20:32;4.90;;;2.50;;
32032;SDS011;31720;52.638;9.216;2023-07-31T01:27:09;6.80;;;2.72;;
32032;SDS011;31720;52.638;9.216;2023-07-31T01:30:15;3.25;;;2.47;;
32032;SDS011;31720;52.638;9.216;2023-07-31T01:33:21;3.15;;;2.13;;
32032;SDS011;31720;52.638;9.216;2023-07-31T01:36:22;3.53;;;2.38;;
32032;SDS011;31720;52.638;9.216;2023-07-31T01:39:24;4.05;;;2.13;;
32032;SDS011;31720;52.638;9.216;2023-07-31T01:42:27;5.88;;;2.53;;
32032;SDS011;31720;52.638;9.216;2023-07-31T01:45:28;3.45;;;2.28;;
32032;SDS011;31720;52.638;9.216;2023-07-31T01:48:30;4.47;;;2.72;;
32032;SDS011;31720;52.638;9.216;2023-07-31T01:51:35;7.18;;;2.50;;
32032;SDS011;31720;52.638;9.216;2023-07-31T01:54:37;7.82;;;2.67;;
32032;SDS011;31720;52.638;9.216;2023-07-31T01:57:39;2.65;;;2.10;;
32032;SDS011;31720;52.638;9.216;2023-07-31T02:00:41;3.45;;;2.03;;
32032;SDS011;31720;52.638;9.216;2023-07-31T02:03:42;5.15;;;2.17;;
32032;SDS011;31720;52.638;9.216;2023-07-31T02:06:43;9.70;;;1.98;;
32032;SDS011;31720;52.638;9.216;2023-07-31T02:09:45;4.85;;;2.78;;
32032;SDS011;31720;52.638;9.216;2023-07-31T02:12:49;3.63;;;2.30;;
32032;SDS011;31720;52.638;9.216;2023-07-31T02:15:50;4.20;;;2.25;;
32032;SDS011;31720;52.638;9.216;2023-07-31T02:18:52;8.20;;;2.78;;
32032;SDS011;31720;52.638;9.216;2023-07-31T02:21:53;3.38;;;2.45;;
32032;SDS011;31720;52.638;9.216;2023-07-31T02:24:54;8.25;;;4.13;;
32032;SDS011;31720;52.638;9.216;2023-07-31T02:27:57;7.50;;;3.15;;
32032;SDS011;31720;52.638;9.216;2023-07-31T02:30:58;4.22;;;2.60;;
32032;SDS011;31720;52.638;9.216;2023-07-31T02:34:00;2.65;;;2.15;;
32032;SDS011;31720;52.638;9.216;2023-07-31T02:37:01;4.68;;;2.58;;
32032;SDS011;31720;52.638;9.216;2023-07-31T02:40:03;4.38;;;2.50;;
32032;SDS011;31720;52.638;9.216;2023-07-31T02:43:06;5.07;;;2.75;;
32032;SDS011;31720;52.638;9.216;2023-07-31T02:46:08;4.78;;;2.70;;
32032;SDS011;31720;52.638;9.216;2023-07-31T02:49:09;3.53;;;2.38;;
32032;SDS011;31720;52.638;9.216;2023-07-31T02:52:11;3.20;;;2.03;;
32032;SDS011;31720;52.638;9.216;2023-07-31T02:55:12;5.57;;;2.63;;
32032;SDS011;31720;52.638;9.216;2023-07-31T02:58:15;4.30;;;2.75;;
32032;SDS011;31720;52.638;9.216;2023-07-31T03:01:16;4.18;;;2.38;;
32032;SDS011;31720;52.638;9.216;2023-07-31T03:04:17;4.07;;;2.20;;
32032;SDS011;31720;52.638;9.216;2023-07-31T03:07:19;6.95;;;3.00;;
32032;SDS011;31720;52.638;9.216;2023-07-31T03:10:20;3.88;;;2.45;;
32032;SDS011;31720;52.638;9.216;2023-07-31T03:13:23;3.90;;;2.42;;
32032;SDS011;31720;52.638;9.216;2023-07-31T03:16:24;3.65;;;2.15;;
32032;SDS011;31720;52.638;9.216;2023-07-31T03:19:26;3.65;;;2.80;;
32032;SDS011;31720;52.638;9.216;2023-07-31T03:22:27;3.15;;;1.77;;
32032;SDS011;31720;52.638;9.216;2023-07-31T03:25:29;3.70;;;2.30;;
32032;SDS011;31720;52.638;9.216;2023-07-31T03:28:31;2.13;;;1.85;;
32032;SDS011;31720;52.638;9.216;2023-07-31T03:31:33;3.15;;;2.03;;
32032;SDS011;31720;52.638;9.216;2023-07-31T03:34:34;4.15;;;2.20;;
32032;SDS011;31720;52.638;9.216;2023-07-31T03:37:36;4.78;;;2.50;;
32032;SDS011;31720;52.638;9.216;2023-07-31T03:40:37;3.75;;;2.70;;
32032;SDS011;31720;52.638;9.216;2023-07-31T03:43:40;5.18;;;2.58;;
32032;SDS011;31720;52.638;9.216;2023-07-31T03:46:42;3.45;;;2.38;;
32032;SDS011;31720;52.638;9.216;2023-07-31T03:49:43;4.80;;;2.33;;
32032;SDS011;31720;52.638;9.216;2023-07-31T03:52:44;3.95;;;2.10;;
32032;SDS011;31720;52.638;9.216;2023-07-31T03:55:46;3.83;;;2.55;;
32032;SDS011;31720;52.638;9.216;2023-07-31T03:58:49;4.55;;;2.38;;
32032;SDS011;31720;52.638;9.216;2023-07-31T04:01:50;5.05;;;2.40;;
32032;SDS011;31720;52.638;9.216;2023-07-31T04:04:52;4.70;;;2.72;;
32032;SDS011;31720;52.638;9.216;2023-07-31T04:07:53;3.00;;;2.00;;
32032;SDS011;31720;52.638;9.216;2023-07-31T04:10:54;3.03;;;2.28;;
32032;SDS011;31720;52.638;9.216;2023-07-31T04:13:57;2.30;;;1.83;;
32032;SDS011;31720;52.638;9.216;2023-07-31T04:16:58;4.25;;;1.63;;
32032;SDS011;31720;52.638;9.216;2023-07-31T04:20:00;2.90;;;2.15;;
32032;SDS011;31720;52.638;9.216;2023-07-31T04:23:01;4.00;;;1.90;;
32032;SDS011;31720;52.638;9.216;2023-07-31T04:26:03;2.15;;;1.90;;
32032;SDS011;31720;52.638;9.216;2023-07-31T04:29:05;2.63;;;2.05;;
32032;SDS011;31720;52.638;9.216;2023-07-31T04:32:07;2.75;;;1.90;;
32032;SDS011;31720;52.638;9.216;2023-07-31T04:35:08;3.05;;;1.85;;
32032;SDS011;31720;52.638;9.216;2023-07-31T04:38:10;5.40;;;1.77;;
32032;SDS011;31720;52.638;9.216;2023-07-31T04:41:11;1.98;;;1.67;;
32032;SDS011;31720;52.638;9.216;2023-07-31T04:44:14;2.08;;;1.42;;
32032;SDS011;31720;52.638;9.216;2023-07-31T04:47:15;2.45;;;1.40;;
32032;SDS011;31720;52.638;9.216;2023-07-31T04:50:17;3.65;;;1.02;;
32032;SDS011;31720;52.638;9.216;2023-07-31T04:53:18;2.00;;;1.50;;
32032;SDS011;31720;52.638;9.216;2023-07-31T04:56:20;2.08;;;1.30;;
32032;SDS011;31720;52.638;9.216;2023-07-31T04:59:22;2.92;;;1.05;;
32032;SDS011;31720;52.638;9.216;2023-07-31T05:02:24;1.92;;;1.33;;
32032;SDS011;31720;52.638;9.216;2023-07-31T05:05:25;1.92;;;1.10;;
32032;SDS011;31720;52.638;9.216;2023-07-31T05:08:27;0.98;;;0.82;;
32032;SDS011;31720;52.638;9.216;2023-07-31T05:11:28;1.25;;;0.90;;
32032;SDS011;31720;52.638;9.216;2023-07-31T05:14:31;0.50;;;0.50;;
32032;SDS011;31720;52.638;9.216;2023-07-31T05:17:32;2.58;;;0.73;;
32032;SDS011;31720;52.638;9.216;2023-07-31T05:20:33;1.10;;;0.65;;
32032;SDS011;31720;52.638;9.216;2023-07-31T05:23:35;3.00;;;0.57;;
32032;SDS011;31720;52.638;9.216;2023-07-31T05:26:36;0.63;;;0.60;;
32032;SDS011;31720;52.638;9.216;2023-07-31T05:29:39;1.88;;;0.63;;
32032;SDS011;31720;52.638;9.216;2023-07-31T05:32:41;1.20;;;0.98;;
32032;SDS011;31720;52.638;9.216;2023-07-31T05:35:43;0.68;;;0.30;;
32032;SDS011;31720;52.638;9.216;2023-07-31T05:38:44;0.95;;;0.47;;
32032;SDS011;31720;52.638;9.216;2023-07-31T05:41:47;0.38;;;0.38;;
32032;SDS011;31720;52.638;9.216;2023-07-31T05:44:49;0.40;;;0.40;;
32032;SDS011;31720;52.638;9.216;2023-07-31T05:47:51;0.80;;;0.63;;
32032;SDS011;31720;52.638;9.216;2023-07-31T05:50:52;0.40;;;0.40;;
32032;SDS011;31720;52.638;9.216;2023-07-31T05:53:54;1.00;;;0.50;;
32032;SDS011;31720;52.638;9.216;2023-07-31T05:56:55;0.93;;;0.60;;
32032;SDS011;31720;52.638;9.216;2023-07-31T05:59:58;4.18;;;0.77;;
32032;SDS011;31720;52.638;9.216;2023-07-31T06:02:59;1.05;;;0.50;;
32032;SDS011;31720;52.638;9.216;2023-07-31T06:06:01;0.73;;;0.50;;
32032;SDS011;31720;52.638;9.216;2023-07-31T06:09:02;0.93;;;0.32;;
32032;SDS011;31720;52.638;9.216;2023-07-31T06:12:04;1.50;;;0.95;;
32032;SDS011;31720;52.638;9.216;2023-07-31T06:15:08;1.77;;;0.85;;
32032;SDS011;31720;52.638;9.216;2023-07-31T06:18:10;2.35;;;1.38;;
32032;SDS011;31720;52.638;9.216;2023-07-31T06:21:11;0.73;;;0.60;;
32032;SDS011;31720;52.638;9.216;2023-07-31T06:24:12;0.50;;;0.50;;
32032;SDS011;31720;52.638;9.216;2023-07-31T06:27:18;0.55;;;0.43;;
32032;SDS011;31720;52.638;9.216;2023-07-31T06:30:21;0.60;;;0.40;;
32032;SDS011;31720;52.638;9.216;2023-07-31T06:33:23;1.20;;;0.80;;
32032;SDS011;31720;52.638;9.216;2023-07-31T06:36:24;1.95;;;0.80;;
32032;SDS011;31720;52.638;9.216;2023-07-31T06:39:26;1.10;;;0.73;;
32032;SDS011;31720;52.638;9.216;2023-07-31T06:42:27;0.90;;;0.57;;
32032;SDS011;31720;52.638;9.216;2023-07-31T06:45:30;2.60;;;0.98;;
32032;SDS011;31720;52.638;9.216;2023-07-31T06:48:31;0.50;;;0.50;;
32032;SDS011;31720;52.638;9.216;2023-07-31T06:51:33;1.83;;;1.38;;
32032;SDS011;31720;52.638;9.216;2023-07-31T06:54:35;1.95;;;1.20;;
32032;SDS011;31720;52.638;9.216;2023-07-31T06:57:37;3.97;;;1.30;;
32032;SDS011;31720;52.638;9.216;2023-07-31T07:00:40;2.60;;;1.50;;
32032;SDS011;31720;52.638;9.216;2023-07-31T07:03:42;2.70;;;2.00;;
32032;SDS011;31720;52.638;9.216;2023-07-31T07:06:43;6.90;;;1.85;;
32032;SDS011;31720;52.638;9.216;2023-07-31T07:09:44;4.00;;;2.22;;
32032;SDS011;31720;52.638;9.216;2023-07-31T07:12:46;6.65;;;3.10;;
32032;SDS011;31720;52.638;9.216;2023-07-31T07:15:51;11.27;;;3.22;;
32032;SDS011;31720;52.638;9.216;2023-07-31T07:18:52;7.82;;;3.47;;
32032;SDS011;31720;52.638;9.216;2023-07-31T07:21:54;5.00;;;3.15;;
32032;SDS011;31720;52.638;9.216;2023-07-31T07:24:56;6.78;;;3.80;;
32032;SDS011;31720;52.638;9.216;2023-07-31T07:27:57;10.85;;;4.82;;
32032;SDS011;31720;52.638;9.216;2023-07-31T07:31:00;15.07;;;3.90;;
32032;SDS011;31720;52.638;9.216;2023-07-31T07:34:01;12.82;;;4.45;;
32032;SDS011;31720;52.638;9.216;2023-07-31T07:37:03;11.95;;;4.25;;
32032;SDS011;31720;52.638;9.216;2023-07-31T07:40:06;11.10;;;4.60;;
32032;SDS011;31720;52.638;9.216;2023-07-31T07:43:08;12.63;;;4.72;;
32032;SDS011;31720;52.638;9.216;2023-07-31T07:46:11;8.98;;;4.70;;
32032;SDS011;31720;52.638;9.216;2023-07-31T07:49:12;17.00;;;4.72;;
32032;SDS011;31720;52.638;9.216;2023-07-31T07:52:14;14.00;;;4.63;;
32032;SDS011;31720;52.638;9.216;2023-07-31T07:55:15;13.57;;;4.93;;
32032;SDS011;31720;52.638;9.216;2023-07-31T07:58:17;17.38;;;4.93;;
32032;SDS011;31720;52.638;9.216;2023-07-31T08:01:20;15.40;;;5.90;;
32032;SDS011;31720;52.638;9.216;2023-07-31T08:04:21;10.50;;;4.97;;
32032;SDS011;31720;52.638;9.216;2023-07-31T08:07:23;20.63;;;5.93;;
32032;SDS011;31720;52.638;9.216;2023-07-31T08:10:24;20.48;;;5.28;;
32032;SDS011;31720;52.638;9.216;2023-07-31T08:13:25;14.63;;;4.55;;
32032;SDS011;31720;52.638;9.216;2023-07-31T08:16:28;11.95;;;4.32;;
32032;SDS011;31720;52.638;9.216;2023-07-31T08:19:30;14.20;;;3.88;;
32032;SDS011;31720;52.638;9.216;2023-07-31T08:22:31;13.93;;;3.75;;
32032;SDS011;31720;52.638;9.216;2023-07-31T08:25:34;9.32;;;4.28;;
32032;SDS011;31720;52.638;9.216;2023-07-31T08:28:36;6.32;;;3.50;;
32032;SDS011;31720;52.638;9.216;2023-07-31T08:31:38;10.32;;;4.32;;
32032;SDS011;31720;52.638;9.216;2023-07-31T08:34:40;6.32;;;2.92;;
32032;SDS011;31720;52.638;9.216;2023-07-31T08:37:41;11.35;;;3.30;;
32032;SDS011;31720;52.638;9.216;2023-07-31T08:40:43;12.35;;;4.53;;
32032;SDS011;31720;52.638;9.216;2023-07-31T08:43:45;8.77;;;3.75;;
32032;SDS011;31720;52.638;9.216;2023-07-31T08:46:48;5.78;;;2.95;;
32032;SDS011;31720;52.638;9.216;2023-07-31T08:49:50;13.48;;;4.55;;
32032;SDS011;31720;52.638;9.216;2023-07-31T08:52:53;10.77;;;3.15;;
32032;SDS011;31720;52.638;9.216;2023-07-31T08:55:55;9.52;;;3.38;;
32032;SDS011;31720;52.638;9.216;2023-07-31T08:58:59;13.88;;;3.95;;
32032;SDS011;31720;52.638;9.216;2023-07-31T09:02:06;6.78;;;2.92;;
32032;SDS011;31720;52.638;9.216;2023-07-31T09:05:09;7.80;;;4.05;;
32032;SDS011;31720;52.638;9.216;2023-07-31T09:08:13;14.18;;;3.53;;
32032;SDS011;31720;52.638;9.216;2023-07-31T09:11:15;12.63;;;3.40;;
32032;SDS011;31720;52.638;9.216;2023-07-31T09:14:17;11.90;;;4.15;;
32032;SDS011;31720;52.638;9.216;2023-07-31T09:17:29;6.65;;;2.92;;
32032;SDS011;31720;52.638;9.216;2023-07-31T09:20:31;7.68;;;2.47;;
32032;SDS011;31720;52.638;9.216;2023-07-31T09:23:40;8.10;;;2.75;;
32032;SDS011;31720;52.638;9.216;2023-07-31T09:26:43;4.93;;;2.28;;
32032;SDS011;31720;52.638;9.216;2023-07-31T09:29:44;6.93;;;2.40;;
32032;SDS011;31720;52.638;9.216;2023-07-31T09:32:47;6.00;;;2.47;;
32032;SDS011;31720;52.638;9.216;2023-07-31T09:35:50;6.68;;;3.15;;
32032;SDS011;31720;52.638;9.216;2023-07-31T09:38:52;3.50;;;2.00;;
32032;SDS011;31720;52.638;9.216;2023-07-31T09:41:54;4.85;;;2.58;;
32032;SDS011;31720;52.638;9.216;2023-07-31T09:45:03;4.43;;;2.25;;
32032;SDS011;31720;52.638;9.216;2023-07-31T09:48:09;11.18;;;2.85;;
32032;SDS011;31720;52.638;9.216;2023-07-31T09:51:12;5.53;;;3.05;;
32032;SDS011;31720;52.638;9.216;2023-07-31T09:54:14;20.35;;;3.33;;
32032;SDS011;31720;52.638;9.216;2023-07-31T09:57:17;5.95;;;2.78;;
32032;SDS011;31720;52.638;9.216;2023-07-31T10:00:19;6.65;;;2.50;;
32032;SDS011;31720;52.638;9.216;2023-07-31T10:03:24;6.82;;;2.90;;
32032;SDS011;31720;52.638;9.216;2023-07-31T10:06:27;6.88;;;3.47;;
32032;SDS011;31720;52.638;9.216;2023-07-31T10:09:28;6.78;;;2.80;;
32032;SDS011;31720;52.638;9.216;2023-07-31T10:12:32;4.75;;;2.70;;
32032;SDS011;31720;52.638;9.216;2023-07-31T10:15:34;4.07;;;2.40;;
32032;SDS011;31720;52.638;9.216;2023-07-31T10:18:38;5.47;;;2.72;;
32032;SDS011;31720;52.638;9.216;2023-07-31T10:21:41;5.55;;;2.72;;
32032;SDS011;31720;52.638;9.216;2023-07-31T10:24:43;5.57;;;2.22;;
32032;SDS011;31720;52.638;9.216;2023-07-31T10:27:46;6.30;;;2.50;;
32032;SDS011;31720;52.638;9.216;2023-07-31T10:30:48;5.20;;;3.17;;
32032;SDS011;31720;52.638;9.216;2023-07-31T10:33:52;7.07;;;2.58;;
32032;SDS011;31720;52.638;9.216;2023-07-31T10:40:23;3.67;;;2.60;;
32032;SDS011;31720;52.638;9.216;2023-07-31T10:43:26;3.38;;;2.38;;
32032;SDS011;31720;52.638;9.216;2023-07-31T10:46:27;3.65;;;2.47;;
32032;SDS011;31720;52.638;9.216;2023-07-31T10:49:31;3.38;;;2.05;;
32032;SDS011;31720;52.638;9.216;2023-07-31T10:52:33;2.83;;;1.98;;
32032;SDS011;31720;52.638;9.216;2023-07-31T10:55:38;3.22;;;1.85;;
32032;SDS011;31720;52.638;9.216;2023-07-31T10:58:43;2.55;;;2.00;;
32032;SDS011;31720;52.638;9.216;2023-07-31T11:01:52;3.70;;;2.10;;
32032;SDS011;31720;52.638;9.216;2023-07-31T11:05:08;4.47;;;2.40;;
32032;SDS011;31720;52.638;9.216;2023-07-31T11:08:11;3.95;;;1.73;;
32032;SDS011;31720;52.638;9.216;2023-07-31T11:11:14;3.95;;;2.00;;
32032;SDS011;31720;52.638;9.216;2023-07-31T11:14:17;2.67;;;1.98;;
32032;SDS011;31720;52.638;9.216;2023-07-31T11:17:18;2.55;;;1.80;;
32032;SDS011;31720;52.638;9.216;2023-07-31T11:20:21;3.10;;;1.80;;
32032;SDS011;31720;52.638;9.216;2023-07-31T11:23:23;1.92;;;1.60;;
32032;SDS011;31720;52.638;9.216;2023-07-31T11:26:25;1.75;;;1.48;;
32032;SDS011;31720;52.638;9.216;2023-07-31T11:29:27;2.30;;;1.50;;
32032;SDS011;31720;52.638;9.216;2023-07-31T11:32:28;2.20;;;1.33;;
32032;SDS011;31720;52.638;9.216;2023-07-31T11:35:32;1.42;;;1.33;;
32032;SDS011;31720;52.638;9.216;2023-07-31T11:38:34;2.67;;;1.98;;
32032;SDS011;31720;52.638;9.216;2023-07-31T11:41:35;2.83;;;1.42;;
32032;SDS011;31720;52.638;9.216;2023-07-31T11:44:38;2.33;;;1.45;;
32032;SDS011;31720;52.638;9.216;2023-07-31T11:47:40;6.43;;;1.17;;
32032;SDS011;31720;52.638;9.216;2023-07-31T11:50:42;2.22;;;1.30;;
32032;SDS011;31720;52.638;9.216;2023-07-31T11:53:45;2.00;;;1.40;;
32032;SDS011;31720;52.638;9.216;2023-07-31T11:56:52;1.55;;;1.33;;
32032;SDS011;31720;52.638;9.216;2023-07-31T11:59:53;1.52;;;1.25;;
32032;SDS011;31720;52.638;9.216;2023-07-31T12:02:56;1.65;;;1.30;;
32032;SDS011;31720;52.638;9.216;2023-07-31T12:05:59;1.30;;;1.05;;
32032;SDS011;31720;52.638;9.216;2023-07-31T12:09:01;4.90;;;1.50;;
32032;SDS011;31720;52.638;9.216;2023-07-31T12:12:07;1.70;;;1.33;;
32032;SDS011;31720;52.638;9.216;2023-07-31T12:15:18;1.58;;;1.30;;
32032;SDS011;31720;52.638;9.216;2023-07-31T12:18:20;1.98;;;1.73;;
32032;SDS011;31720;52.638;9.216;2023-07-31T12:21:24;4.72;;;1.70;;
32032;SDS011;31720;52.638;9.216;2023-07-31T12:24:28;2.28;;;1.77;;
32032;SDS011;31720;52.638;9.216;2023-07-31T12:27:32;2.38;;;1.67;;
32032;SDS011;31720;52.638;9.216;2023-07-31T12:30:34;3.40;;;2.05;;
32032;SDS011;31720;52.638;9.216;2023-07-31T12:33:36;2.95;;;2.03;;
32032;SDS011;31720;52.638;9.216;2023-07-31T12:36:40;1.98;;;1.60;;
32032;SDS011;31720;52.638;9.216;2023-07-31T12:39:43;2.28;;;1.85;;
32032;SDS011;31720;52.638;9.216;2023-07-31T12:42:45;1.95;;;1.48;;
32032;SDS011;31720;52.638;9.216;2023-07-31T12:45:46;2.00;;;1.80;;
32032;SDS011;31720;52.638;9.216;2023-07-31T12:48:48;2.88;;;2.00;;
32032;SDS011;31720;52.638;9.216;2023-07-31T12:51:50;4.05;;;2.72;;
32032;SDS011;31720;52.638;9.216;2023-07-31T12:54:54;4.35;;;1.92;;
32032;SDS011;31720;52.638;9.216;2023-07-31T12:57:55;2.70;;;2.38;;
32032;SDS011;31720;52.638;9.216;2023-07-31T13:00:57;5.03;;;1.92;;
32032;SDS011;31720;52.638;9.216;2023-07-31T13:03:58;2.00;;;1.63;;
32032;SDS011;31720;52.638;9.216;2023-07-31T13:07:01;1.98;;;1.65;;
32032;SDS011;31720;52.638;9.216;2023-07-31T13:10:03;1.98;;;1.55;;
32032;SDS011;31720;52.638;9.216;2023-07-31T13:13:04;2.22;;;1.48;;
32032;SDS011;31720;52.638;9.216;2023-07-31T13:16:06;2.17;;;1.50;;
32032;SDS011;31720;52.638;9.216;2023-07-31T13:19:07;2.00;;;1.67;;
32032;SDS011;31720;52.638;9.216;2023-07-31T13:22:10;3.80;;;1.75;;
32032;SDS011;31720;52.638;9.216;2023-07-31T13:25:11;2.30;;;1.48;;
32032;SDS011;31720;52.638;9.216;2023-07-31T13:28:13;2.08;;;1.58;;
32032;SDS011;31720;52.638;9.216;2023-07-31T13:31:14;5.43;;;2.33;;
32032;SDS011;31720;52.638;9.216;2023-07-31T13:34:15;3.75;;;1.50;;
32032;SDS011;31720;52.638;9.216;2023-07-31T13:37:18;1.83;;;1.40;;
32032;SDS011;31720;52.638;9.216;2023-07-31T13:40:20;3.10;;;1.52;;
32032;SDS011;31720;52.638;9.216;2023-07-31T13:43:22;2.80;;;1.50;;
32032;SDS011;31720;52.638;9.216;2023-07-31T13:46:24;3.10;;;1.40;;
32032;SDS011;31720;52.638;9.216;2023-07-31T13:49:25;1.52;;;1.27;;
32032;SDS011;31720;52.638;9.216;2023-07-31T13:52:28;1.33;;;1.23;;
32032;SDS011;31720;52.638;9.216;2023-07-31T13:55:29;2.92;;;1.52;;
32032;SDS011;31720;52.638;9.216;2023-07-31T13:58:32;2.75;;;1.73;;
32032;SDS011;31720;52.638;9.216;2023-07-31T14:01:34;1.98;;;1.38;;
32032;SDS011;31720;52.638;9.216;2023-07-31T14:04:35;1.60;;;1.45;;
32032;SDS011;31720;52.638;9.216;2023-07-31T14:07:38;1.80;;;1.42;;
32032;SDS011;31720;52.638;9.216;2023-07-31T14:10:39;1.85;;;1.58;;
32032;SDS011;31720;52.638;9.216;2023-07-31T14:13:41;2.17;;;1.40;;
32032;SDS011;31720;52.638;9.216;2023-07-31T14:16:42;2.22;;;1.60;;
32032;SDS011;31720;52.638;9.216;2023-07-31T14:19:43;3.15;;;1.75;;
32032;SDS011;31720;52.638;9.216;2023-07-31T14:22:46;1.23;;;1.13;;
32032;SDS011;31720;52.638;9.216;2023-07-31T14:25:48;1.80;;;1.70;;
32032;SDS011;31720;52.638;9.216;2023-07-31T14:28:49;2.80;;;1.83;;
32032;SDS011;31720;52.638;9.216;2023-07-31T14:31:50;2.75;;;1.75;;
32032;SDS011;31720;52.638;9.216;2023-07-31T14:34:52;2.95;;;2.20;;
32032;SDS011;31720;52.638;9.216;2023-07-31T14:37:55;2.58;;;2.10;;
32032;SDS011;31720;52.638;9.216;2023-07-31T14:40:57;2.50;;;2.08;;
32032;SDS011;31720;52.638;9.216;2023-07-31T14:43:58;2.75;;;2.08;;
32032;SDS011;31720;52.638;9.216;2023-07-31T14:47:00;2.70;;;2.20;;
32032;SDS011;31720;52.638;9.216;2023-07-31T14:50:01;3.67;;;2.55;;
32032;SDS011;31720;52.638;9.216;2023-07-31T14:53:04;4.13;;;2.70;;
32032;SDS011;31720;52.638;9.216;2023-07-31T14:56:06;4.45;;;3.22;;
32032;SDS011;31720;52.638;9.216;2023-07-31T14:59:07;4.00;;;2.70;;
32032;SDS011;31720;52.638;9.216;2023-07-31T15:02:10;5.20;;;2.83;;
32032;SDS011;31720;52.638;9.216;2023-07-31T15:05:11;4.25;;;3.05;;
32032;SDS011;31720;52.638;9.216;2023-07-31T15:08:14;7.97;;;3.50;;
32032;SDS011;31720;52.638;9.216;2023-07-31T15:11:15;6.05;;;3.95;;
32032;SDS011;31720;52.638;9.216;2023-07-31T15:14:18;4.47;;;3.38;;
32032;SDS011;31720;52.638;9.216;2023-07-31T15:17:20;4.80;;;3.33;;
32032;SDS011;31720;52.638;9.216;2023-07-31T15:20:21;5.70;;;3.17;;
32032;SDS011;31720;52.638;9.216;2023-07-31T15:23:24;7.63;;;4.00;;
32032;SDS011;31720;52.638;9.216;2023-07-31T15:26:26;5.53;;;3.30;;
32032;SDS011;31720;52.638;9.216;2023-07-31T15:29:27;4.45;;;3.28;;
32032;SDS011;31720;52.638;9.216;2023-07-31T15:32:29;7.40;;;3.58;;
32032;SDS011;31720;52.638;9.216;2023-07-31T15:35:30;4.38;;;3.33;;
32032;SDS011;31720;52.638;9.216;2023-07-31T15:38:33;3.83;;;3.17;;
32032;SDS011;31720;52.638;9.216;2023-07-31T15:41:34;4.47;;;3.20;;
32032;SDS011;31720;52.638;9.216;2023-07-31T15:44:36;5.20;;;3.15;;
32032;SDS011;31720;52.638;9.216;2023-07-31T15:47:39;4.43;;;3.00;;
32032;SDS011;31720;52.638;9.216;2023-07-31T15:50:40;4.30;;;2.90;;
32032;SDS011;31720;52.638;9.216;2023-07-31T15:53:43;4.57;;;2.83;;
32032;SDS011;31720;52.638;9.216;2023-07-31T15:56:44;4.70;;;3.10;;
32032;SDS011;31720;52.638;9.216;2023-07-31T15:59:45;4.25;;;3.05;;
32032;SDS011;31720;52.638;9.216;2023-07-31T16:02:47;3.70;;;2.75;;
32032;SDS011;31720;52.638;9.216;2023-07-31T16:05:49;2.88;;;2.40;;
32032;SDS011;31720;52.638;9.216;2023-07-31T16:08:51;5.82;;;2.60;;
32032;SDS011;31720;52.638;9.216;2023-07-31T16:11:54;5.30;;;3.17;;
32032;SDS011;31720;52.638;9.216;2023-07-31T16:14:56;3.72;;;2.53;;
32032;SDS011;31720;52.638;9.216;2023-07-31T16:17:57;5.90;;;3.20;;
32032;SDS011;31720;52.638;9.216;2023-07-31T16:20:58;4.78;;;3.03;;
32032;SDS011;31720;52.638;9.216;2023-07-31T16:24:01;5.25;;;3.13;;
32032;SDS011;31720;52.638;9.216;2023-07-31T16:27:03;5.43;;;3.28;;
32032;SDS011;31720;52.638;9.216;2023-07-31T16:30:05;6.00;;;3.00;;
32032;SDS011;31720;52.638;9.216;2023-07-31T16:33:07;6.20;;;3.08;;
32032;SDS011;31720;52.638;9.216;2023-07-31T16:36:08;5.05;;;3.30;;
32032;SDS011;31720;52.638;9.216;2023-07-31T16:39:11;6.35;;;3.13;;
32032;SDS011;31720;52.638;9.216;2023-07-31T16:42:12;5.75;;;3.00;;
32032;SDS011;31720;52.638;9.216;2023-07-31T16:45:14;4.47;;;3.47;;
32032;SDS011;31720;52.638;9.216;2023-07-31T16:48:15;5.18;;;3.38;;
32032;SDS011;31720;52.638;9.216;2023-07-31T16:51:17;4.70;;;3.20;;
32032;SDS011;31720;52.638;9.216;2023-07-31T16:54:21;4.90;;;3.58;;
32032;SDS011;31720;52.638;9.216;2023-07-31T16:57:22;4.03;;;2.72;;
32032;SDS011;31720;52.638;9.216;2023-07-31T17:00:24;4.88;;;3.80;;
32032;SDS011;31720;52.638;9.216;2023-07-31T17:03:26;4.78;;;3.58;;
32032;SDS011;31720;52.638;9.216;2023-07-31T17:06:27;3.50;;;3.00;;
32032;SDS011;31720;52.638;9.216;2023-07-31T17:09:30;7.70;;;3.65;;
32032;SDS011;31720;52.638;9.216;2023-07-31T17:12:31;5.53;;;3.28;;
32032;SDS011;31720;52.638;9.216;2023-07-31T17:15:33;4.22;;;2.95;;
32032;SDS011;31720;52.638;9.216;2023-07-31T17:18:34;4.30;;;3.33;;
32032;SDS011;31720;52.638;9.216;2023-07-31T17:21:35;3.47;;;2.80;;
32032;SDS011;31720;52.638;9.216;2023-07-31T17:24:38;4.18;;;3.10;;
32032;SDS011;31720;52.638;9.216;2023-07-31T17:27:40;4.28;;;2.75;;
32032;SDS011;31720;52.638;9.216;2023-07-31T17:30:41;6.00;;;2.67;;
32032;SDS011;31720;52.638;9.216;2023-07-31T17:33:43;3.42;;;2.75;;
32032;SDS011;31720;52.638;9.216;2023-07-31T17:36:44;3.90;;;2.55;;
32032;SDS011;31720;52.638;9.216;2023-07-31T17:39:47;5.53;;;3.30;;
32032;SDS011;31720;52.638;9.216;2023-07-31T17:42:48;4.30;;;3.10;;
32032;SDS011;31720;52.638;9.216;2023-07-31T17:45:50;4.75;;;3.20;;
32032;SDS011;31720;52.638;9.216;2023-07-31T17:48:51;5.43;;;3.80;;
32032;SDS011;31720;52.638;9.216;2023-07-31T17:51:52;5.40;;;3.30;;
32032;SDS011;31720;52.638;9.216;2023-07-31T17:54:55;6.03;;;3.65;;
32032;SDS011;31720;52.638;9.216;2023-07-31T17:57:56;5.75;;;3.60;;
32032;SDS011;31720;52.638;9.216;2023-07-31T18:00:58;6.75;;;4.13;;
32032;SDS011;31720;52.638;9.216;2023-07-31T18:03:59;6.82;;;4.07;;
32032;SDS011;31720;52.638;9.216;2023-07-31T18:07:01;5.43;;;3.97;;
32032;SDS011;31720;52.638;9.216;2023-07-31T18:10:04;8.05;;;3.70;;
32032;SDS011;31720;52.638;9.216;2023-07-31T18:13:07;8.05;;;4.53;;
32032;SDS011;31720;52.638;9.216;2023-07-31T18:16:08;7.10;;;4.60;;
32032;SDS011;31720;52.638;9.216;2023-07-31T18:19:10;5.53;;;3.83;;
32032;SDS011;31720;52.638;9.216;2023-07-31T18:22:11;7.15;;;4.10;;